sensor_id;sensor_type;location;lat;lon;timestamp;pressure;altitude;pressure_sealevel;temperature;humidity
79142;BME280;68550;-26.480;29.234;2023-09-19T00:02:09;84366.01;;;22.99;28.77
79142;BME280;68550;-26.480;29.234;2023-09-19T00:04:34;84367.82;;;22.75;28.78
79142;BME280;68550;-26.480;29.234;2023-09-19T00:07:00;84363.91;;;22.94;28.80
79142;BME280;68550;-26.480;29.234;2023-09-19T00:09:26;84362.60;;;22.75;28.72
79142;BME280;68550;-26.480;29.234;2023-09-19T00:11:51;84363.88;;;22.96;28.80
79142;BME280;68550;-26.480;29.234;2023-09-19T00:14:16;84364.84;;;22.72;28.80
79142;BME280;68550;-26.480;29.234;2023-09-19T00:16:42;84362.04;;;22.73;28.79
79142;BME280;68550;-26.480;29.234;2023-09-19T00:19:10;84362.68;;;22.65;28.89
79142;BME280;68550;-26.480;29.234;2023-09-19T00:21:33;84359.87;;;22.53;28.84
79142;BME280;68550;-26.480;29.234;2023-09-19T00:23:59;84358.51;;;22.75;28.75
79142;BME280;68550;-26.480;29.234;2023-09-19T00:26:24;84358.72;;;22.83;28.71
79142;BME280;68550;-26.480;29.234;2023-09-19T00:28:53;84358.14;;;23.05;28.79
79142;BME280;68550;-26.480;29.234;2023-09-19T00:31:15;84356.34;;;22.68;28.95
79142;BME280;68550;-26.480;29.234;2023-09-19T00:33:40;84359.30;;;22.91;28.92
79142;BME280;68550;-26.480;29.234;2023-09-19T00:36:06;84361.26;;;22.90;28.96
79142;BME280;68550;-26.480;29.234;2023-09-19T00:38:33;84359.57;;;22.98;28.95
79142;BME280;68550;-26.480;29.234;2023-09-19T00:40:57;84359.27;;;22.79;28.90
79142;BME280;68550;-26.480;29.234;2023-09-19T00:43:22;84357.69;;;22.37;29.15
79142;BME280;68550;-26.480;29.234;2023-09-19T00:45:50;84357.53;;;22.41;29.03
79142;BME280;68550;-26.480;29.234;2023-09-19T00:48:12;84358.96;;;22.85;29.07
79142;BME280;68550;-26.480;29.234;2023-09-19T00:50:41;84364.07;;;22.63;28.90
79142;BME280;68550;-26.480;29.234;2023-09-19T00:53:03;84363.81;;;22.75;29.13
79142;BME280;68550;-26.480;29.234;2023-09-19T00:55:29;84360.36;;;22.58;29.01
79142;BME280;68550;-26.480;29.234;2023-09-19T00:57:56;84362.07;;;22.68;29.20
79142;BME280;68550;-26.480;29.234;2023-09-19T01:00:19;84359.56;;;22.74;29.12
79142;BME280;68550;-26.480;29.234;2023-09-19T01:02:46;84357.14;;;22.39;29.17
79142;BME280;68550;-26.480;29.234;2023-09-19T01:05:10;84357.22;;;22.73;29.12
79142;BME280;68550;-26.480;29.234;2023-09-19T01:07:35;84352.66;;;22.47;29.02
79142;BME280;68550;-26.480;29.234;2023-09-19T01:10:01;84351.87;;;22.76;29.00
79142;BME280;68550;-26.480;29.234;2023-09-19T01:12:30;84352.43;;;22.78;28.96
79142;BME280;68550;-26.480;29.234;2023-09-19T01:14:55;84352.50;;;22.71;29.13
79142;BME280;68550;-26.480;29.234;2023-09-19T01:17:23;84348.69;;;22.50;29.04
79142;BME280;68550;-26.480;29.234;2023-09-19T01:22:13;84349.03;;;22.67;29.14
79142;BME280;68550;-26.480;29.234;2023-09-19T01:27:11;84348.88;;;22.81;29.15
79142;BME280;68550;-26.480;29.234;2023-09-19T01:29:33;84349.59;;;22.89;29.11
79142;BME280;68550;-26.480;29.234;2023-09-19T01:31:52;84346.53;;;22.85;29.17
79142;BME280;68550;-26.480;29.234;2023-09-19T01:34:14;84343.23;;;22.83;29.23
79142;BME280;68550;-26.480;29.234;2023-09-19T01:36:40;84343.44;;;22.72;29.33
79142;BME280;68550;-26.480;29.234;2023-09-19T01:39:06;84340.17;;;22.69;29.41
79142;BME280;68550;-26.480;29.234;2023-09-19T01:41:41;84333.67;;;22.75;29.34
79142;BME280;68550;-26.480;29.234;2023-09-19T01:43:57;84331.07;;;22.41;29.39
79142;BME280;68550;-26.480;29.234;2023-09-19T01:46:25;84325.87;;;22.39;29.39
79142;BME280;68550;-26.480;29.234;2023-09-19T01:48:54;84333.31;;;22.39;29.37
79142;BME280;68550;-26.480;29.234;2023-09-19T01:51:16;84330.42;;;22.65;29.40
79142;BME280;68550;-26.480;29.234;2023-09-19T01:53:44;84329.78;;;22.51;29.39
79142;BME280;68550;-26.480;29.234;2023-09-19T01:56:08;84328.08;;;22.31;29.43
79142;BME280;68550;-26.480;29.234;2023-09-19T01:58:34;84325.97;;;22.64;29.36
79142;BME280;68550;-26.480;29.234;2023-09-19T02:00:57;84329.16;;;22.28;29.58
79142;BME280;68550;-26.480;29.234;2023-09-19T02:03:22;84332.26;;;22.50;29.60
79142;BME280;68550;-26.480;29.234;2023-09-19T02:05:50;84333.84;;;22.49;29.64
79142;BME280;68550;-26.480;29.234;2023-09-19T02:08:12;84330.66;;;22.48;29.68
79142;BME280;68550;-26.480;29.234;2023-09-19T02:10:37;84330.37;;;22.29;29.53
79142;BME280;68550;-26.480;29.234;2023-09-19T02:13:03;84332.25;;;22.47;29.60
79142;BME280;68550;-26.480;29.234;2023-09-19T02:15:30;84332.04;;;22.55;29.55
79142;BME280;68550;-26.480;29.234;2023-09-19T02:17:54;84332.25;;;22.28;29.54
79142;BME280;68550;-26.480;29.234;2023-09-19T02:20:19;84335.56;;;22.51;29.60
79142;BME280;68550;-26.480;29.234;2023-09-19T02:22:45;84336.59;;;22.49;29.60
79142;BME280;68550;-26.480;29.234;2023-09-19T02:25:11;84335.63;;;22.50;29.69
79142;BME280;68550;-26.480;29.234;2023-09-19T02:27:37;84336.94;;;22.48;29.69
79142;BME280;68550;-26.480;29.234;2023-09-19T02:30:02;84338.94;;;22.54;29.59
79142;BME280;68550;-26.480;29.234;2023-09-19T02:32:27;84340.23;;;22.22;29.61
79142;BME280;68550;-26.480;29.234;2023-09-19T02:34:53;84341.32;;;22.44;29.60
79142;BME280;68550;-26.480;29.234;2023-09-19T02:37:18;84344.90;;;22.45;29.55
79142;BME280;68550;-26.480;29.234;2023-09-19T02:39:43;84340.43;;;22.16;29.59
79142;BME280;68550;-26.480;29.234;2023-09-19T02:42:09;84339.35;;;22.43;29.65
79142;BME280;68550;-26.480;29.234;2023-09-19T02:44:35;84339.22;;;22.31;29.75
79142;BME280;68550;-26.480;29.234;2023-09-19T02:47:00;84336.97;;;22.36;29.66
79142;BME280;68550;-26.480;29.234;2023-09-19T02:49:26;84337.07;;;22.32;29.68
79142;BME280;68550;-26.480;29.234;2023-09-19T02:51:51;84335.69;;;22.60;29.71
79142;BME280;68550;-26.480;29.234;2023-09-19T02:54:16;84338.61;;;22.54;29.75
79142;BME280;68550;-26.480;29.234;2023-09-19T02:56:47;84342.33;;;22.33;29.68
79142;BME280;68550;-26.480;29.234;2023-09-19T02:59:07;84338.68;;;22.30;29.61
79142;BME280;68550;-26.480;29.234;2023-09-19T03:01:32;84337.83;;;22.26;29.53
79142;BME280;68550;-26.480;29.234;2023-09-19T03:03:58;84335.80;;;22.28;29.59
79142;BME280;68550;-26.480;29.234;2023-09-19T03:06:23;84339.24;;;22.29;29.55
79142;BME280;68550;-26.480;29.234;2023-09-19T03:08:49;84342.54;;;22.23;29.64
79142;BME280;68550;-26.480;29.234;2023-09-19T03:11:16;84342.27;;;22.35;29.59
79142;BME280;68550;-26.480;29.234;2023-09-19T03:13:41;84341.45;;;22.13;29.45
79142;BME280;68550;-26.480;29.234;2023-09-19T03:16:06;84340.15;;;22.37;29.55
79142;BME280;68550;-26.480;29.234;2023-09-19T03:18:31;84344.58;;;22.32;29.61
79142;BME280;68550;-26.480;29.234;2023-09-19T03:20:56;84345.50;;;22.34;29.63
79142;BME280;68550;-26.480;29.234;2023-09-19T03:23:23;84345.04;;;22.13;29.60
79142;BME280;68550;-26.480;29.234;2023-09-19T03:25:47;84345.56;;;22.29;29.61
79142;BME280;68550;-26.480;29.234;2023-09-19T03:28:13;84345.53;;;22.74;29.71
79142;BME280;68550;-26.480;29.234;2023-09-19T03:30:39;84343.45;;;22.25;29.67
79142;BME280;68550;-26.480;29.234;2023-09-19T03:33:04;84344.95;;;22.32;29.76
79142;BME280;68550;-26.480;29.234;2023-09-19T03:35:32;84344.93;;;22.24;29.78
79142;BME280;68550;-26.480;29.234;2023-09-19T03:37:55;84346.84;;;22.38;29.91
79142;BME280;68550;-26.480;29.234;2023-09-19T03:40:20;84345.66;;;22.36;29.87
79142;BME280;68550;-26.480;29.234;2023-09-19T03:42:47;84345.02;;;22.06;29.90
79142;BME280;68550;-26.480;29.234;2023-09-19T03:45:16;84342.23;;;22.17;29.79
79142;BME280;68550;-26.480;29.234;2023-09-19T03:47:37;84345.48;;;22.32;29.72
79142;BME280;68550;-26.480;29.234;2023-09-19T03:50:02;84348.64;;;22.10;29.98
79142;BME280;68550;-26.480;29.234;2023-09-19T03:52:27;84347.63;;;22.10;29.92
79142;BME280;68550;-26.480;29.234;2023-09-19T03:54:53;84345.04;;;22.64;29.86
79142;BME280;68550;-26.480;29.234;2023-09-19T03:57:19;84348.76;;;22.06;30.05
79142;BME280;68550;-26.480;29.234;2023-09-19T03:59:48;84347.52;;;22.13;29.86
79142;BME280;68550;-26.480;29.234;2023-09-19T04:02:09;84349.15;;;22.26;29.73
79142;BME280;68550;-26.480;29.234;2023-09-19T04:04:34;84352.03;;;22.09;29.86
79142;BME280;68550;-26.480;29.234;2023-09-19T04:07:00;84354.82;;;22.13;29.79
79142;BME280;68550;-26.480;29.234;2023-09-19T04:09:26;84356.12;;;22.17;29.64
79142;BME280;68550;-26.480;29.234;2023-09-19T04:11:52;84360.97;;;22.01;29.90
79142;BME280;68550;-26.480;29.234;2023-09-19T04:14:16;84363.34;;;22.05;29.84
79142;BME280;68550;-26.480;29.234;2023-09-19T04:16:41;84362.46;;;22.26;29.78
79142;BME280;68550;-26.480;29.234;2023-09-19T04:19:06;84362.72;;;22.31;29.67
79142;BME280;68550;-26.480;29.234;2023-09-19T04:21:32;84363.77;;;22.03;29.74
79142;BME280;68550;-26.480;29.234;2023-09-19T04:23:57;84365.24;;;21.97;29.80
79142;BME280;68550;-26.480;29.234;2023-09-19T04:26:23;84369.30;;;22.18;29.85
79142;BME280;68550;-26.480;29.234;2023-09-19T04:28:48;84372.03;;;22.26;29.72
79142;BME280;68550;-26.480;29.234;2023-09-19T04:31:13;84372.08;;;22.08;29.65
79142;BME280;68550;-26.480;29.234;2023-09-19T04:33:39;84372.72;;;22.10;29.67
79142;BME280;68550;-26.480;29.234;2023-09-19T04:36:04;84374.57;;;22.07;29.74
79142;BME280;68550;-26.480;29.234;2023-09-19T04:38:29;84375.96;;;22.16;29.88
79142;BME280;68550;-26.480;29.234;2023-09-19T04:40:58;84375.75;;;22.19;29.86
79142;BME280;68550;-26.480;29.234;2023-09-19T04:43:20;84375.48;;;22.25;29.88
79142;BME280;68550;-26.480;29.234;2023-09-19T04:45:45;84374.67;;;22.30;29.83
79142;BME280;68550;-26.480;29.234;2023-09-19T04:48:11;84369.58;;;22.17;29.84
79142;BME280;68550;-26.480;29.234;2023-09-19T04:50:36;84370.34;;;22.26;30.00
79142;BME280;68550;-26.480;29.234;2023-09-19T04:53:04;84376.01;;;22.42;29.86
79142;BME280;68550;-26.480;29.234;2023-09-19T04:55:28;84376.82;;;22.08;29.97
79142;BME280;68550;-26.480;29.234;2023-09-19T04:57:54;84378.30;;;22.51;29.76
79142;BME280;68550;-26.480;29.234;2023-09-19T05:00:20;84383.30;;;21.99;30.10
79142;BME280;68550;-26.480;29.234;2023-09-19T05:02:44;84383.61;;;22.31;30.06
79142;BME280;68550;-26.480;29.234;2023-09-19T05:05:11;84385.27;;;22.26;30.17
79142;BME280;68550;-26.480;29.234;2023-09-19T05:07:35;84389.96;;;22.29;30.25
79142;BME280;68550;-26.480;29.234;2023-09-19T05:10:01;84390.79;;;22.43;30.18
79142;BME280;68550;-26.480;29.234;2023-09-19T05:12:27;84392.00;;;22.10;30.15
79142;BME280;68550;-26.480;29.234;2023-09-19T05:14:51;84393.42;;;22.08;30.46
79142;BME280;68550;-26.480;29.234;2023-09-19T05:17:17;84397.75;;;21.99;30.51
79142;BME280;68550;-26.480;29.234;2023-09-19T05:19:43;84398.97;;;22.29;30.50
79142;BME280;68550;-26.480;29.234;2023-09-19T05:22:07;84402.09;;;22.21;30.63
79142;BME280;68550;-26.480;29.234;2023-09-19T05:24:32;84405.45;;;22.38;30.47
79142;BME280;68550;-26.480;29.234;2023-09-19T05:26:58;84411.63;;;21.99;30.72
79142;BME280;68550;-26.480;29.234;2023-09-19T05:29:27;84411.23;;;22.29;30.66
79142;BME280;68550;-26.480;29.234;2023-09-19T05:31:50;84413.28;;;22.30;30.49
79142;BME280;68550;-26.480;29.234;2023-09-19T05:34:16;84420.40;;;22.31;30.78
79142;BME280;68550;-26.480;29.234;2023-09-19T05:36:40;84425.86;;;22.31;30.82
79142;BME280;68550;-26.480;29.234;2023-09-19T05:39:06;84421.34;;;22.41;30.74
79142;BME280;68550;-26.480;29.234;2023-09-19T05:41:31;84423.03;;;22.06;30.80
79142;BME280;68550;-26.480;29.234;2023-09-19T05:43:58;84418.70;;;22.21;31.14
79142;BME280;68550;-26.480;29.234;2023-09-19T05:46:22;84415.49;;;22.03;31.24
79142;BME280;68550;-26.480;29.234;2023-09-19T05:48:48;84412.76;;;22.22;31.21
79142;BME280;68550;-26.480;29.234;2023-09-19T05:51:14;84414.26;;;22.38;31.18
79142;BME280;68550;-26.480;29.234;2023-09-19T05:53:39;84416.70;;;21.99;31.48
79142;BME280;68550;-26.480;29.234;2023-09-19T05:56:06;84413.98;;;22.26;31.34
79142;BME280;68550;-26.480;29.234;2023-09-19T05:58:30;84407.12;;;22.05;31.20
79142;BME280;68550;-26.480;29.234;2023-09-19T06:00:56;84402.69;;;22.16;31.06
79142;BME280;68550;-26.480;29.234;2023-09-19T06:03:22;84393.62;;;22.31;31.21
79142;BME280;68550;-26.480;29.234;2023-09-19T06:05:48;84389.15;;;22.45;31.57
79142;BME280;68550;-26.480;29.234;2023-09-19T06:08:14;84390.74;;;22.43;31.74
79142;BME280;68550;-26.480;29.234;2023-09-19T06:10:41;84393.83;;;22.17;31.45
79142;BME280;68550;-26.480;29.234;2023-09-19T06:13:09;84398.88;;;22.21;31.83
79142;BME280;68550;-26.480;29.234;2023-09-19T06:15:31;84402.48;;;22.29;31.73
79142;BME280;68550;-26.480;29.234;2023-09-19T06:17:56;84403.11;;;22.32;31.46
79142;BME280;68550;-26.480;29.234;2023-09-19T06:20:24;84402.40;;;22.26;31.82
79142;BME280;68550;-26.480;29.234;2023-09-19T06:22:48;84399.79;;;22.32;31.66
79142;BME280;68550;-26.480;29.234;2023-09-19T06:25:15;84403.81;;;22.34;31.82
79142;BME280;68550;-26.480;29.234;2023-09-19T06:27:38;84404.25;;;22.34;31.87
79142;BME280;68550;-26.480;29.234;2023-09-19T06:30:04;84405.34;;;22.42;32.22
79142;BME280;68550;-26.480;29.234;2023-09-19T06:32:31;84407.86;;;22.39;32.21
79142;BME280;68550;-26.480;29.234;2023-09-19T06:34:54;84406.75;;;22.65;32.25
79142;BME280;68550;-26.480;29.234;2023-09-19T06:37:20;84405.25;;;22.67;32.31
79142;BME280;68550;-26.480;29.234;2023-09-19T06:39:45;84401.62;;;22.46;32.10
79142;BME280;68550;-26.480;29.234;2023-09-19T06:42:11;84394.59;;;22.75;32.07
79142;BME280;68550;-26.480;29.234;2023-09-19T06:44:36;84392.67;;;22.64;32.14
79142;BME280;68550;-26.480;29.234;2023-09-19T06:47:01;84396.61;;;22.57;32.10
79142;BME280;68550;-26.480;29.234;2023-09-19T06:49:26;84404.08;;;22.62;31.94
79142;BME280;68550;-26.480;29.234;2023-09-19T06:51:55;84405.06;;;22.71;31.82
79142;BME280;68550;-26.480;29.234;2023-09-19T06:54:19;84413.59;;;22.71;31.59
79142;BME280;68550;-26.480;29.234;2023-09-19T06:56:42;84414.74;;;22.69;31.48
79142;BME280;68550;-26.480;29.234;2023-09-19T06:59:08;84418.71;;;22.73;31.61
79142;BME280;68550;-26.480;29.234;2023-09-19T07:01:33;84417.08;;;22.78;31.44
79142;BME280;68550;-26.480;29.234;2023-09-19T07:03:59;84419.76;;;22.84;31.40
79142;BME280;68550;-26.480;29.234;2023-09-19T07:06:25;84419.52;;;22.75;31.38
79142;BME280;68550;-26.480;29.234;2023-09-19T07:08:50;84420.55;;;22.59;31.42
79142;BME280;68550;-26.480;29.234;2023-09-19T07:11:15;84422.14;;;22.60;31.42
79142;BME280;68550;-26.480;29.234;2023-09-19T07:13:41;84420.35;;;22.88;31.20
79142;BME280;68550;-26.480;29.234;2023-09-19T07:16:07;84421.50;;;22.91;31.23
79142;BME280;68550;-26.480;29.234;2023-09-19T07:18:35;84420.77;;;22.87;31.23
79142;BME280;68550;-26.480;29.234;2023-09-19T07:21:00;84421.21;;;22.86;31.22
79142;BME280;68550;-26.480;29.234;2023-09-19T07:23:24;84423.04;;;22.94;31.15
79142;BME280;68550;-26.480;29.234;2023-09-19T07:25:50;84423.26;;;23.01;31.23
79142;BME280;68550;-26.480;29.234;2023-09-19T07:28:15;84422.29;;;23.08;31.10
79142;BME280;68550;-26.480;29.234;2023-09-19T07:30:41;84420.08;;;22.79;31.14
79142;BME280;68550;-26.480;29.234;2023-09-19T07:33:09;84414.35;;;22.98;31.20
79142;BME280;68550;-26.480;29.234;2023-09-19T07:35:32;84413.04;;;23.15;31.16
79142;BME280;68550;-26.480;29.234;2023-09-19T07:37:58;84412.51;;;23.16;31.04
79142;BME280;68550;-26.480;29.234;2023-09-19T07:40:25;84412.36;;;23.19;30.98
79142;BME280;68550;-26.480;29.234;2023-09-19T07:42:49;84413.82;;;22.94;30.96
79142;BME280;68550;-26.480;29.234;2023-09-19T07:45:17;84410.12;;;23.41;30.90
79142;BME280;68550;-26.480;29.234;2023-09-19T07:47:43;84409.20;;;22.85;31.05
79142;BME280;68550;-26.480;29.234;2023-09-19T07:50:06;84415.15;;;23.07;30.95
79142;BME280;68550;-26.480;29.234;2023-09-19T07:52:31;84416.39;;;23.09;30.91
79142;BME280;68550;-26.480;29.234;2023-09-19T07:54:57;84418.62;;;22.99;31.07
79142;BME280;68550;-26.480;29.234;2023-09-19T07:57:22;84415.17;;;22.86;30.93
79142;BME280;68550;-26.480;29.234;2023-09-19T07:59:49;84414.00;;;23.29;30.98
79142;BME280;68550;-26.480;29.234;2023-09-19T08:02:13;84415.96;;;22.83;30.99
79142;BME280;68550;-26.480;29.234;2023-09-19T08:04:38;84418.89;;;22.92;30.96
79142;BME280;68550;-26.480;29.234;2023-09-19T08:07:04;84420.49;;;22.99;30.88
79142;BME280;68550;-26.480;29.234;2023-09-19T08:09:29;84423.24;;;23.23;30.87
79142;BME280;68550;-26.480;29.234;2023-09-19T08:11:56;84421.40;;;23.22;30.90
79142;BME280;68550;-26.480;29.234;2023-09-19T08:14:19;84422.49;;;23.04;30.85
79142;BME280;68550;-26.480;29.234;2023-09-19T08:16:45;84417.73;;;23.00;30.91
79142;BME280;68550;-26.480;29.234;2023-09-19T08:19:10;84418.58;;;23.27;30.88
79142;BME280;68550;-26.480;29.234;2023-09-19T08:21:36;84420.53;;;23.32;30.91
79142;BME280;68550;-26.480;29.234;2023-09-19T08:24:02;84416.53;;;23.05;30.96
79142;BME280;68550;-26.480;29.234;2023-09-19T08:26:26;84421.69;;;23.19;30.84
79142;BME280;68550;-26.480;29.234;2023-09-19T08:28:51;84414.89;;;23.40;30.83
79142;BME280;68550;-26.480;29.234;2023-09-19T08:31:19;84411.51;;;23.38;30.89
79142;BME280;68550;-26.480;29.234;2023-09-19T08:33:43;84411.20;;;23.49;30.72
79142;BME280;68550;-26.480;29.234;2023-09-19T08:36:08;84409.01;;;23.27;30.65
79142;BME280;68550;-26.480;29.234;2023-09-19T08:38:35;84406.37;;;23.27;30.55
79142;BME280;68550;-26.480;29.234;2023-09-19T08:41:00;84400.40;;;23.19;30.63
79142;BME280;68550;-26.480;29.234;2023-09-19T08:43:27;84398.34;;;23.06;30.83
79142;BME280;68550;-26.480;29.234;2023-09-19T08:45:50;84395.13;;;23.13;30.68
79142;BME280;68550;-26.480;29.234;2023-09-19T08:48:23;84393.12;;;23.19;30.52
79142;BME280;68550;-26.480;29.234;2023-09-19T08:50:47;84389.04;;;23.16;30.56
79142;BME280;68550;-26.480;29.234;2023-09-19T08:53:11;84383.58;;;23.30;30.46
79142;BME280;68550;-26.480;29.234;2023-09-19T08:55:33;84380.95;;;23.28;30.52
79142;BME280;68550;-26.480;29.234;2023-09-19T08:58:03;84371.26;;;23.51;30.36
79142;BME280;68550;-26.480;29.234;2023-09-19T09:00:25;84367.96;;;23.20;30.49
79142;BME280;68550;-26.480;29.234;2023-09-19T09:02:50;84361.60;;;23.32;30.36
79142;BME280;68550;-26.480;29.234;2023-09-19T09:05:15;84351.04;;;23.41;30.18
79142;BME280;68550;-26.480;29.234;2023-09-19T09:07:42;84347.09;;;23.67;30.21
79142;BME280;68550;-26.480;29.234;2023-09-19T09:10:07;84339.25;;;23.37;30.20
79142;BME280;68550;-26.480;29.234;2023-09-19T09:12:31;84338.27;;;23.38;30.24
79142;BME280;68550;-26.480;29.234;2023-09-19T09:14:58;84332.67;;;23.42;30.14
79142;BME280;68550;-26.480;29.234;2023-09-19T09:17:23;84327.18;;;23.33;30.25
79142;BME280;68550;-26.480;29.234;2023-09-19T09:19:48;84326.25;;;23.46;30.20
79142;BME280;68550;-26.480;29.234;2023-09-19T09:22:16;84319.16;;;23.47;30.15
79142;BME280;68550;-26.480;29.234;2023-09-19T09:24:52;84312.66;;;23.53;30.18
79142;BME280;68550;-26.480;29.234;2023-09-19T09:27:08;84313.82;;;23.51;30.10
79142;BME280;68550;-26.480;29.234;2023-09-19T09:29:41;84317.83;;;23.49;30.14
79142;BME280;68550;-26.480;29.234;2023-09-19T09:34:22;84312.21;;;23.50;30.00
79142;BME280;68550;-26.480;29.234;2023-09-19T09:36:49;84304.62;;;23.76;30.14
79142;BME280;68550;-26.480;29.234;2023-09-19T09:39:13;84302.24;;;23.48;29.71
79142;BME280;68550;-26.480;29.234;2023-09-19T09:41:39;84300.07;;;23.48;29.79
79142;BME280;68550;-26.480;29.234;2023-09-19T09:44:12;84293.42;;;23.66;29.74
79142;BME280;68550;-26.480;29.234;2023-09-19T09:46:29;84292.14;;;23.53;29.73
79142;BME280;68550;-26.480;29.234;2023-09-19T09:48:57;84282.34;;;23.56;29.69
79142;BME280;68550;-26.480;29.234;2023-09-19T09:51:29;84274.67;;;23.65;29.65
79142;BME280;68550;-26.480;29.234;2023-09-19T09:53:45;84269.37;;;23.53;29.70
79142;BME280;68550;-26.480;29.234;2023-09-19T09:56:11;84263.41;;;23.47;29.72
79142;BME280;68550;-26.480;29.234;2023-09-19T09:58:37;84260.11;;;23.45;29.75
79142;BME280;68550;-26.480;29.234;2023-09-19T10:01:02;84252.41;;;23.50;29.68
79142;BME280;68550;-26.480;29.234;2023-09-19T10:03:34;84250.72;;;23.61;29.52
79142;BME280;68550;-26.480;29.234;2023-09-19T10:05:55;84248.97;;;23.62;29.58
79142;BME280;68550;-26.480;29.234;2023-09-19T10:08:19;84239.33;;;23.47;29.62
79142;BME280;68550;-26.480;29.234;2023-09-19T10:10:44;84239.19;;;23.58;29.63
79142;BME280;68550;-26.480;29.234;2023-09-19T10:13:11;84235.47;;;23.67;29.48
79142;BME280;68550;-26.480;29.234;2023-09-19T10:15:37;84227.86;;;23.59;29.41
79142;BME280;68550;-26.480;29.234;2023-09-19T10:18:01;84224.41;;;23.61;29.39
79142;BME280;68550;-26.480;29.234;2023-09-19T10:20:26;84220.00;;;23.64;29.38
79142;BME280;68550;-26.480;29.234;2023-09-19T10:22:51;84219.41;;;23.90;29.27
79142;BME280;68550;-26.480;29.234;2023-09-19T10:25:16;84211.91;;;23.64;29.22
79142;BME280;68550;-26.480;29.234;2023-09-19T10:27:42;84209.31;;;23.59;29.38
79142;BME280;68550;-26.480;29.234;2023-09-19T10:30:09;84211.12;;;23.64;29.37
79142;BME280;68550;-26.480;29.234;2023-09-19T10:32:32;84202.96;;;23.64;29.35
79142;BME280;68550;-26.480;29.234;2023-09-19T10:35:00;84197.11;;;23.91;29.25
79142;BME280;68550;-26.480;29.234;2023-09-19T10:37:24;84194.63;;;23.62;29.26
79142;BME280;68550;-26.480;29.234;2023-09-19T10:39:54;84197.02;;;23.71;29.15
79142;BME280;68550;-26.480;29.234;2023-09-19T10:42:19;84194.88;;;23.67;29.18
79142;BME280;68550;-26.480;29.234;2023-09-19T10:44:42;84195.67;;;23.68;29.15
79142;BME280;68550;-26.480;29.234;2023-09-19T10:47:05;84195.57;;;23.44;29.06
79142;BME280;68550;-26.480;29.234;2023-09-19T10:49:31;84194.10;;;23.49;28.99
79142;BME280;68550;-26.480;29.234;2023-09-19T10:51:58;84190.05;;;23.70;28.97
79142;BME280;68550;-26.480;29.234;2023-09-19T10:54:26;84183.87;;;23.76;28.96
79142;BME280;68550;-26.480;29.234;2023-09-19T10:56:49;84188.64;;;23.58;29.10
79142;BME280;68550;-26.480;29.234;2023-09-19T10:59:14;84182.73;;;23.66;28.95
79142;BME280;68550;-26.480;29.234;2023-09-19T11:01:44;84183.05;;;23.73;28.79
79142;BME280;68550;-26.480;29.234;2023-09-19T11:06:29;84174.36;;;23.96;28.54
79142;BME280;68550;-26.480;29.234;2023-09-19T11:09:01;84172.01;;;24.03;28.71
79142;BME280;68550;-26.480;29.234;2023-09-19T11:11:40;84166.84;;;23.61;28.62
79142;BME280;68550;-26.480;29.234;2023-09-19T11:13:46;84163.76;;;23.97;28.54
79142;BME280;68550;-26.480;29.234;2023-09-19T11:18:51;84157.82;;;23.94;28.47
79142;BME280;68550;-26.480;29.234;2023-09-19T11:23:27;84157.60;;;23.95;28.38
79142;BME280;68550;-26.480;29.234;2023-09-19T11:25:53;84157.37;;;24.05;28.32
79142;BME280;68550;-26.480;29.234;2023-09-19T11:28:29;84149.74;;;23.87;28.38
79142;BME280;68550;-26.480;29.234;2023-09-19T11:30:43;84148.15;;;23.85;28.36
79142;BME280;68550;-26.480;29.234;2023-09-19T11:33:17;84147.47;;;23.62;28.45
79142;BME280;68550;-26.480;29.234;2023-09-19T11:38:02;84154.78;;;23.98;28.27
79142;BME280;68550;-26.480;29.234;2023-09-19T11:40:25;84157.82;;;23.77;28.49
79142;BME280;68550;-26.480;29.234;2023-09-19T11:42:50;84165.51;;;23.79;28.40
79142;BME280;68550;-26.480;29.234;2023-09-19T11:47:46;84163.82;;;23.68;28.18
79142;BME280;68550;-26.480;29.234;2023-09-19T11:50:07;84160.21;;;23.92;28.07
79142;BME280;68550;-26.480;29.234;2023-09-19T11:52:33;84164.62;;;23.79;28.22
79142;BME280;68550;-26.480;29.234;2023-09-19T11:54:58;84158.12;;;23.76;28.29
79142;BME280;68550;-26.480;29.234;2023-09-19T11:57:23;84156.21;;;23.55;28.19
79142;BME280;68550;-26.480;29.234;2023-09-19T11:59:49;84155.53;;;23.67;28.06
79142;BME280;68550;-26.480;29.234;2023-09-19T12:02:20;84151.60;;;23.69;28.11
79142;BME280;68550;-26.480;29.234;2023-09-19T12:04:40;84150.89;;;23.96;28.02
79142;BME280;68550;-26.480;29.234;2023-09-19T12:07:07;84151.19;;;23.77;27.87
79142;BME280;68550;-26.480;29.234;2023-09-19T12:09:29;84158.26;;;23.82;27.70
79142;BME280;68550;-26.480;29.234;2023-09-19T12:11:55;84160.01;;;24.13;27.98
79142;BME280;68550;-26.480;29.234;2023-09-19T12:14:24;84156.21;;;24.13;28.04
79142;BME280;68550;-26.480;29.234;2023-09-19T12:16:51;84152.27;;;24.05;27.62
79142;BME280;68550;-26.480;29.234;2023-09-19T12:19:21;84147.44;;;24.14;27.72
79142;BME280;68550;-26.480;29.234;2023-09-19T12:21:38;84132.67;;;24.16;27.45
79142;BME280;68550;-26.480;29.234;2023-09-19T12:24:07;84139.90;;;24.16;27.29
79142;BME280;68550;-26.480;29.234;2023-09-19T12:26:28;84133.28;;;23.80;27.68
79142;BME280;68550;-26.480;29.234;2023-09-19T12:28:55;84129.95;;;24.12;27.53
79142;BME280;68550;-26.480;29.234;2023-09-19T12:31:20;84128.94;;;24.20;27.17
79142;BME280;68550;-26.480;29.234;2023-09-19T12:33:45;84137.21;;;24.22;27.24
79142;BME280;68550;-26.480;29.234;2023-09-19T12:36:20;84132.84;;;24.07;27.33
79142;BME280;68550;-26.480;29.234;2023-09-19T12:38:37;84131.42;;;24.14;27.26
79142;BME280;68550;-26.480;29.234;2023-09-19T12:41:02;84118.93;;;23.91;27.44
79142;BME280;68550;-26.480;29.234;2023-09-19T12:43:27;84117.54;;;24.26;27.49
79142;BME280;68550;-26.480;29.234;2023-09-19T12:45:51;84117.33;;;24.21;27.42
79142;BME280;68550;-26.480;29.234;2023-09-19T12:48:21;84117.24;;;23.77;27.22
79142;BME280;68550;-26.480;29.234;2023-09-19T12:55:33;84101.90;;;24.21;27.07